createdAt,value
2023-05-04T00:00:57.313Z,82.83
2023-05-04T00:01:57.787Z,82.97
2023-05-04T00:02:58.315Z,84.05
2023-05-04T00:03:59.053Z,84.25
2023-05-04T00:04:59.266Z,84.11
2023-05-04T00:05:59.372Z,83.70
2023-05-04T00:06:59.883Z,83.25
2023-05-04T00:08:00.380Z,82.32
2023-05-04T00:09:00.901Z,82.63
2023-05-04T00:10:01.550Z,82.83
2023-05-04T00:11:01.501Z,82.46
2023-05-04T00:12:01.997Z,83.07
2023-05-04T00:13:02.567Z,83.18
2023-05-04T00:14:03.080Z,83.49
2023-05-04T00:15:03.555Z,84.00
2023-05-04T00:16:04.173Z,83.55
2023-05-04T00:17:04.694Z,83.25
2023-05-04T00:18:05.251Z,83.45
2023-05-04T00:19:05.249Z,82.69
2023-05-04T00:20:05.977Z,82.59
2023-05-04T00:21:06.053Z,83.04
2023-05-04T00:22:06.560Z,83.35
2023-05-04T00:23:07.099Z,83.76
2023-05-04T00:24:07.644Z,82.59
2023-05-04T00:25:08.173Z,81.83
2023-05-04T00:26:08.703Z,81.87
2023-05-04T00:27:09.239Z,82.83
2023-05-04T00:28:09.750Z,82.48
2023-05-04T00:29:10.225Z,82.73
2023-05-04T00:30:10.714Z,82.77
2023-05-04T00:31:11.237Z,83.28
2023-05-04T00:32:11.740Z,82.83
2023-05-04T00:33:12.261Z,82.97
2023-05-04T00:34:12.753Z,83.90
2023-05-04T00:35:13.236Z,83.18
2023-05-04T00:36:13.714Z,83.49
2023-05-04T00:37:14.210Z,84.14
2023-05-04T00:38:14.702Z,84.19
2023-05-04T00:39:15.212Z,84.77
2023-05-04T00:40:15.708Z,85.01
2023-05-04T00:41:16.233Z,84.77
2023-05-04T00:42:16.754Z,84.35
2023-05-04T00:43:17.247Z,84.77
2023-05-04T00:44:17.744Z,85.11
2023-05-04T00:45:18.241Z,84.77
2023-05-04T00:46:18.746Z,84.25
2023-05-04T00:47:19.121Z,84.80
2023-05-04T00:48:19.631Z,85.31
2023-05-04T00:49:20.132Z,85.17
2023-05-04T00:50:20.659Z,85.01
2023-05-04T00:51:21.182Z,85.31
2023-05-04T00:52:21.712Z,85.83
2023-05-04T00:53:22.248Z,85.69
2023-05-04T00:54:22.748Z,85.38
2023-05-04T00:55:23.258Z,85.52
2023-05-04T00:56:23.742Z,85.89
2023-05-04T00:57:24.339Z,85.17
2023-05-04T00:58:24.845Z,84.56
2023-05-04T00:59:25.353Z,84.80
2023-05-04T01:00:26.002Z,85.63
2023-05-04T01:01:26.580Z,85.63
2023-05-04T01:02:27.198Z,85.11
2023-05-04T01:03:27.808Z,85.22
2023-05-04T01:04:27.818Z,85.22
2023-05-04T01:05:28.369Z,86.29
2023-05-04T01:06:28.925Z,86.43
2023-05-04T01:07:29.452Z,86.39
2023-05-04T01:08:29.998Z,86.18
2023-05-04T01:09:30.545Z,85.38
2023-05-04T01:10:31.033Z,84.21
2023-05-04T01:11:31.548Z,83.49
2023-05-04T01:12:32.131Z,83.18
2023-05-04T01:13:32.672Z,83.22
2023-05-04T01:14:33.210Z,83.94
2023-05-04T01:15:33.687Z,84.66
2023-05-04T01:16:34.293Z,83.84
2023-05-04T01:17:34.331Z,84.53
2023-05-04T01:18:34.833Z,85.81
2023-05-04T01:19:35.345Z,86.43
2023-05-04T01:20:35.870Z,87.05
2023-05-04T01:21:36.400Z,86.74
2023-05-04T01:22:37.039Z,86.94
2023-05-04T01:23:37.677Z,86.94
2023-05-04T01:24:38.192Z,87.15
2023-05-04T01:25:38.729Z,87.08
2023-05-04T01:26:39.225Z,86.98
2023-05-04T01:27:39.740Z,87.29
2023-05-04T01:28:40.247Z,87.19
2023-05-04T01:29:40.792Z,86.63
2023-05-04T01:30:41.364Z,86.22
2023-05-04T01:31:41.925Z,86.36
2023-05-04T01:32:42.490Z,86.68
2023-05-04T01:33:43.015Z,86.88
2023-05-04T01:34:43.542Z,87.08
2023-05-04T01:35:44.077Z,87.23
2023-05-04T01:36:44.632Z,86.78
2023-05-04T01:37:45.167Z,86.51
2023-05-04T01:38:45.789Z,86.30
2023-05-04T01:39:46.297Z,86.61
2023-05-04T01:40:46.817Z,86.92
2023-05-04T01:41:47.301Z,87.58
2023-05-04T01:42:47.821Z,87.68
2023-05-04T01:43:48.434Z,87.99
2023-05-04T01:44:48.984Z,88.20
2023-05-04T01:45:49.503Z,88.51
2023-05-04T01:46:50.084Z,88.20
2023-05-04T01:47:50.637Z,88.10
2023-05-04T01:48:51.185Z,88.61
2023-05-04T01:49:51.677Z,88.82
2023-05-04T01:50:52.192Z,88.65
2023-05-04T01:51:52.694Z,88.96
2023-05-04T01:52:53.232Z,88.86
2023-05-04T01:53:53.718Z,88.45
2023-05-04T01:54:54.241Z,88.24
2023-05-04T01:55:54.792Z,88.14
2023-05-04T01:56:55.322Z,88.76
2023-05-04T01:57:55.846Z,88.96
2023-05-04T01:58:56.354Z,88.51
2023-05-04T01:59:56.876Z,87.79
2023-05-04T02:00:57.419Z,87.34
2023-05-04T02:01:57.987Z,86.30
2023-05-04T02:02:58.649Z,85.75
2023-05-04T02:03:59.418Z,86.16
2023-05-04T02:04:59.444Z,86.57
2023-05-04T02:05:59.975Z,86.16
2023-05-04T02:07:00.511Z,86.61
2023-05-04T02:08:01.092Z,86.88
2023-05-04T02:09:01.620Z,86.57
2023-05-04T02:10:02.411Z,86.26
2023-05-04T02:11:02.642Z,86.78
2023-05-04T02:12:03.181Z,86.63
2023-05-04T02:13:03.804Z,86.16
2023-05-04T02:14:04.387Z,85.95
2023-05-04T02:15:04.930Z,86.26
2023-05-04T02:16:05.482Z,86.68
2023-05-04T02:17:06.099Z,87.29
2023-05-04T02:18:06.674Z,87.29
2023-05-04T02:19:07.301Z,87.29
2023-05-04T02:20:07.879Z,87.40
2023-05-04T02:21:08.478Z,87.40
2023-05-04T02:22:09.070Z,86.74
2023-05-04T02:23:09.639Z,86.02
2023-05-04T02:24:10.217Z,85.36
2023-05-04T02:25:10.784Z,84.67
2023-05-04T02:26:11.328Z,85.64
2023-05-04T02:27:11.861Z,86.68
2023-05-04T02:28:12.397Z,87.44
2023-05-04T02:29:12.933Z,87.08
2023-05-04T02:30:13.471Z,87.34
2023-05-04T02:31:14.038Z,87.02
2023-05-04T02:32:14.602Z,86.82
2023-05-04T02:33:15.167Z,87.74
2023-05-04T02:34:15.687Z,87.89
2023-05-04T02:35:15.766Z,88.20
2023-05-04T02:36:16.300Z,89.17
2023-05-04T02:37:16.842Z,88.96
2023-05-04T02:38:17.371Z,88.45
2023-05-04T02:39:17.916Z,88.70
2023-05-04T02:40:18.520Z,89.11
2023-05-04T02:41:19.154Z,89.62
2023-05-04T02:42:19.747Z,89.52
2023-05-04T02:43:20.380Z,89.01
2023-05-04T02:44:20.978Z,89.32
2023-05-04T02:45:21.573Z,89.28
2023-05-04T02:46:22.233Z,88.76
2023-05-04T02:47:22.318Z,89.01
2023-05-04T02:48:22.926Z,88.80
2023-05-04T02:49:23.541Z,88.65
2023-05-04T02:50:24.145Z,88.55
2023-05-04T02:51:24.751Z,88.70
2023-05-04T02:52:25.360Z,89.22
2023-05-04T02:53:25.968Z,89.32
2023-05-04T02:54:26.557Z,89.15
2023-05-04T02:55:27.133Z,89.15
2023-05-04T02:56:27.694Z,89.77
2023-05-04T02:57:28.248Z,89.09
2023-05-04T02:58:28.780Z,88.88
2023-05-04T02:59:29.386Z,89.40
2023-05-04T03:00:29.982Z,90.02
2023-05-04T03:01:32.117Z,89.52
2023-05-04T03:02:31.131Z,88.59
2023-05-04T03:03:31.151Z,88.39
2023-05-04T03:04:31.876Z,88.28
2023-05-04T03:05:31.916Z,88.18
2023-05-04T03:06:32.515Z,88.74
2023-05-04T03:07:33.069Z,88.84
2023-05-04T03:08:33.640Z,89.15
2023-05-04T03:09:34.197Z,88.98
2023-05-04T03:10:34.749Z,89.92
2023-05-04T03:11:35.321Z,89.92
2023-05-04T03:12:35.921Z,89.54
2023-05-04T03:13:36.556Z,89.65
2023-05-04T03:14:37.075Z,89.75
2023-05-04T03:15:37.577Z,89.71
2023-05-04T03:16:38.177Z,88.78
2023-05-04T03:17:38.766Z,88.67
2023-05-04T03:18:40.309Z,88.46
2023-05-04T03:19:39.601Z,88.92
2023-05-04T03:20:40.147Z,89.28
2023-05-04T03:21:40.680Z,89.83
2023-05-04T03:22:41.190Z,90.56
2023-05-04T03:23:41.708Z,90.62
2023-05-04T03:24:42.242Z,90.31
2023-05-04T03:25:42.817Z,90.52
2023-05-04T03:26:43.374Z,90.41
2023-05-04T03:27:43.893Z,89.54
2023-05-04T03:28:44.450Z,89.34
2023-05-04T03:29:44.989Z,89.44
2023-05-04T03:30:45.578Z,89.65
2023-05-04T03:31:46.221Z,89.54
2023-05-04T03:32:46.320Z,89.86
2023-05-04T03:33:46.906Z,89.71
2023-05-04T03:34:47.471Z,89.19
2023-05-04T03:35:48.078Z,89.40
2023-05-04T03:36:48.674Z,89.52
2023-05-04T03:37:49.270Z,88.28
2023-05-04T03:38:49.853Z,88.07
2023-05-04T03:39:50.464Z,88.18
2023-05-04T03:40:51.075Z,88.32
2023-05-04T03:41:51.668Z,88.32
2023-05-04T03:42:52.381Z,88.74
2023-05-04T03:43:52.582Z,89.77
2023-05-04T03:44:53.193Z,89.61
2023-05-04T03:45:53.862Z,90.58
2023-05-04T03:46:54.478Z,90.89
2023-05-04T03:47:55.118Z,91.30
2023-05-04T03:48:55.748Z,91.72
2023-05-04T03:49:56.366Z,91.26
2023-05-04T03:50:56.981Z,90.26
2023-05-04T03:51:57.589Z,90.00
2023-05-04T03:52:58.197Z,90.52
2023-05-04T03:53:58.778Z,90.45
2023-05-04T03:54:59.357Z,90.29
2023-05-04T03:55:59.957Z,90.50
2023-05-04T03:57:00.554Z,90.45
2023-05-04T03:58:01.100Z,90.45
2023-05-04T03:59:01.683Z,89.89
2023-05-04T04:00:02.456Z,90.04
2023-05-04T04:01:02.660Z,90.20
2023-05-04T04:02:03.343Z,89.58
2023-05-04T04:03:03.543Z,89.58
2023-05-04T04:04:03.944Z,89.75
2023-05-04T04:05:04.101Z,89.75
2023-05-04T04:06:04.717Z,89.09
2023-05-04T04:07:05.321Z,89.50
2023-05-04T04:08:05.946Z,89.23
2023-05-04T04:09:06.592Z,89.03
2023-05-04T04:10:07.376Z,89.23
2023-05-04T04:11:07.504Z,89.65
2023-05-04T04:12:08.117Z,90.16
2023-05-04T04:13:08.769Z,90.44
2023-05-04T04:14:08.891Z,91.05
2023-05-04T04:15:09.525Z,89.81
2023-05-04T04:16:10.165Z,89.23
2023-05-04T04:17:10.808Z,89.34
2023-05-04T04:18:11.472Z,90.10
2023-05-04T04:19:12.149Z,90.93
2023-05-04T04:20:12.223Z,90.20
2023-05-04T04:21:12.839Z,90.00
2023-05-04T04:22:13.464Z,89.58
2023-05-04T04:23:14.116Z,89.48
2023-05-04T04:24:14.720Z,89.89
2023-05-04T04:25:15.335Z,89.89
2023-05-04T04:26:15.936Z,89.48
2023-05-04T04:27:16.535Z,89.79
2023-05-04T04:28:17.165Z,89.44
2023-05-04T04:29:17.785Z,89.58
2023-05-04T04:30:18.442Z,89.96
2023-05-04T04:31:19.166Z,89.29
2023-05-04T04:32:19.245Z,89.09
2023-05-04T04:33:19.879Z,88.92
2023-05-04T04:34:20.511Z,89.23
2023-05-04T04:35:21.130Z,90.10
2023-05-04T04:36:21.822Z,90.56
2023-05-04T04:37:21.882Z,90.72
2023-05-04T04:38:22.513Z,91.03
2023-05-04T04:39:23.165Z,90.31
2023-05-04T04:40:23.245Z,90.20
2023-05-04T04:41:23.886Z,90.10
2023-05-04T04:42:24.515Z,89.65
2023-05-04T04:43:25.173Z,89.69
2023-05-04T04:44:25.814Z,90.20
2023-05-04T04:45:26.460Z,89.96
2023-05-04T04:46:27.129Z,89.54
2023-05-04T04:47:27.203Z,90.37
2023-05-04T04:48:27.853Z,91.03
2023-05-04T04:49:28.495Z,90.89
2023-05-04T04:50:29.146Z,90.89
2023-05-04T04:51:29.772Z,89.92
2023-05-04T04:52:30.393Z,90.23
2023-05-04T04:53:31.131Z,89.92
2023-05-04T04:54:31.195Z,89.92
2023-05-04T04:55:31.958Z,90.02
2023-05-04T04:56:32.028Z,89.67
2023-05-04T04:57:32.648Z,90.08
2023-05-04T04:58:33.270Z,90.29
2023-05-04T04:59:33.875Z,90.04
2023-05-04T05:00:34.484Z,89.94
2023-05-04T05:01:35.239Z,89.48
2023-05-04T05:02:35.332Z,88.61
2023-05-04T05:03:35.399Z,88.45
2023-05-04T05:04:36.097Z,89.17
2023-05-04T05:05:36.146Z,89.28
2023-05-04T05:06:36.819Z,89.44
2023-05-04T05:07:36.856Z,89.03
2023-05-04T05:08:37.495Z,88.71
2023-05-04T05:09:38.135Z,89.13
2023-05-04T05:10:38.803Z,89.03
2023-05-04T05:11:38.882Z,89.54
2023-05-04T05:12:39.540Z,89.54
2023-05-04T05:13:40.161Z,89.86
2023-05-04T05:14:40.767Z,90.16
2023-05-04T05:15:41.379Z,90.06
2023-05-04T05:16:42.014Z,90.47
2023-05-04T05:17:42.693Z,90.89
2023-05-04T05:18:42.775Z,90.68
2023-05-04T05:19:43.461Z,90.68
2023-05-04T05:20:43.676Z,90.47
2023-05-04T05:21:43.775Z,90.16
2023-05-04T05:22:44.405Z,89.95
2023-05-04T05:23:45.017Z,90.64
2023-05-04T05:24:45.615Z,90.43
2023-05-04T05:25:46.224Z,90.19
2023-05-04T05:26:46.829Z,89.56
2023-05-04T05:27:47.436Z,89.56
2023-05-04T05:28:48.050Z,89.77
2023-05-04T05:29:48.661Z,89.56
2023-05-04T05:30:49.313Z,89.83
2023-05-04T05:31:49.937Z,89.73
2023-05-04T05:32:50.574Z,89.52
2023-05-04T05:33:51.172Z,89.42
2023-05-04T05:34:51.752Z,89.11
2023-05-04T05:35:52.333Z,89.83
2023-05-04T05:36:52.932Z,89.94
2023-05-04T05:37:53.532Z,90.04
2023-05-04T05:38:54.143Z,89.83
2023-05-04T05:39:54.777Z,90.55
2023-05-04T05:40:55.401Z,90.76
2023-05-04T05:41:56.018Z,90.14
2023-05-04T05:42:56.671Z,89.73
2023-05-04T05:43:57.315Z,89.58
2023-05-04T05:44:57.925Z,88.96
2023-05-04T05:45:58.574Z,88.86
2023-05-04T05:46:58.648Z,88.20
2023-05-04T05:47:59.357Z,88.20
2023-05-04T05:48:59.405Z,88.41
2023-05-04T05:50:00.044Z,88.20
2023-05-04T05:51:00.667Z,88.62
2023-05-04T05:52:01.297Z,88.51
2023-05-04T05:53:01.916Z,88.37
2023-05-04T05:54:02.581Z,88.72
2023-05-04T05:55:03.019Z,89.40
2023-05-04T05:56:03.178Z,89.19
2023-05-04T05:57:03.790Z,88.99
2023-05-04T05:58:04.395Z,89.29
2023-05-04T05:59:05.024Z,89.25
2023-05-04T06:00:05.873Z,89.15
2023-05-04T06:01:06.100Z,88.74
2023-05-04T06:02:06.708Z,88.33
2023-05-04T06:03:07.309Z,87.40
2023-05-04T06:04:07.602Z,86.99
2023-05-04T06:05:07.848Z,86.64
2023-05-04T06:06:07.896Z,85.98
2023-05-04T06:07:08.534Z,86.08
2023-05-04T06:08:09.130Z,85.74
2023-05-04T06:09:09.748Z,85.94
2023-05-04T06:10:10.371Z,86.05
2023-05-04T06:11:10.960Z,85.12
2023-05-04T06:12:11.548Z,85.22
2023-05-04T06:13:12.199Z,85.60
2023-05-04T06:14:12.289Z,85.18
2023-05-04T06:15:12.902Z,84.98
2023-05-04T06:16:13.550Z,85.39
2023-05-04T06:17:13.585Z,85.18
2023-05-04T06:18:14.196Z,85.08
2023-05-04T06:19:14.819Z,85.35
2023-05-04T06:20:15.460Z,85.55
2023-05-04T06:21:16.056Z,85.14
2023-05-04T06:22:16.657Z,84.90
2023-05-04T06:23:17.283Z,83.77
2023-05-04T06:24:17.890Z,83.63
2023-05-04T06:25:18.490Z,83.73
2023-05-04T06:26:19.091Z,83.59
2023-05-04T06:27:19.697Z,84.20
2023-05-04T06:28:20.295Z,83.80
2023-05-04T06:29:20.875Z,83.69
2023-05-04T06:30:21.456Z,83.14
2023-05-04T06:31:22.091Z,83.14
2023-05-04T06:32:22.191Z,83.04
2023-05-04T06:33:22.286Z,82.69
2023-05-04T06:34:22.345Z,81.77
2023-05-04T06:35:23.011Z,80.91
2023-05-04T06:36:23.077Z,80.67
2023-05-04T06:37:23.134Z,80.77
2023-05-04T06:38:23.195Z,79.82
2023-05-04T06:39:23.277Z,79.37
2023-05-04T06:40:23.350Z,79.16
2023-05-04T06:41:23.488Z,77.63
2023-05-04T06:42:23.609Z,77.53
2023-05-04T06:43:23.656Z,76.78
2023-05-04T06:44:24.280Z,76.98
2023-05-04T06:45:24.351Z,76.74
2023-05-04T06:46:24.390Z,77.35
2023-05-04T06:47:24.458Z,76.19
2023-05-04T06:48:24.506Z,75.07
2023-05-04T06:49:24.537Z,74.87
2023-05-04T06:50:25.141Z,74.76
2023-05-04T06:51:25.755Z,75.07
2023-05-04T06:52:26.360Z,74.73
2023-05-04T06:53:27.047Z,74.73
2023-05-04T06:54:27.080Z,74.18
2023-05-04T06:55:27.715Z,74.29
2023-05-04T06:56:27.772Z,74.18
2023-05-04T06:57:27.828Z,73.88
2023-05-04T06:58:27.851Z,73.74
2023-05-04T06:59:28.461Z,72.92
2023-05-04T07:00:30.100Z,72.41
2023-05-04T07:01:29.595Z,71.77
2023-05-04T07:02:29.643Z,71.56
2023-05-04T07:03:29.731Z,71.97
2023-05-04T07:04:29.815Z,72.38
2023-05-04T07:05:29.860Z,71.97
2023-05-04T07:06:31.467Z,71.77
2023-05-04T07:07:30.906Z,71.73
2023-05-04T07:08:30.923Z,71.94
2023-05-04T07:09:31.533Z,71.84
2023-05-04T07:10:31.549Z,71.91
2023-05-04T07:11:32.149Z,70.89
2023-05-04T07:12:32.818Z,70.68
2023-05-04T07:13:32.834Z,70.14
2023-05-04T07:14:32.863Z,69.53
2023-05-04T07:15:32.918Z,69.29
2023-05-04T07:16:33.054Z,68.58
2023-05-04T07:17:33.207Z,68.75
2023-05-04T07:18:33.265Z,69.06
2023-05-04T07:19:33.297Z,67.66
2023-05-04T07:20:33.315Z,67.13
2023-05-04T07:21:33.349Z,67.43
2023-05-04T07:22:33.380Z,68.04
2023-05-04T07:23:33.401Z,68.04
2023-05-04T07:24:33.410Z,67.19
2023-05-04T07:25:35.086Z,66.76
2023-05-04T07:26:34.043Z,66.76
2023-05-04T07:27:34.376Z,66.15
2023-05-04T07:28:34.400Z,66.35
2023-05-04T07:29:34.400Z,65.94
2023-05-04T07:30:34.410Z,65.10
2023-05-04T07:31:34.449Z,65.23
2023-05-04T07:32:34.510Z,65.81
2023-05-04T07:33:34.536Z,65.68
2023-05-04T07:34:45.091Z,65.17
2023-05-04T07:35:35.405Z,65.04
2023-05-04T07:36:35.950Z,64.43
2023-05-04T07:37:36.496Z,64.33
2023-05-04T07:38:37.111Z,64.03
2023-05-04T07:39:37.060Z,63.52
2023-05-04T07:40:37.610Z,63.01
2023-05-04T07:41:38.175Z,63.42
2023-05-04T07:42:38.719Z,63.72
2023-05-04T07:43:39.260Z,63.79
2023-05-04T07:44:39.789Z,63.29
2023-05-04T07:45:40.284Z,63.79
2023-05-04T07:46:40.854Z,63.11
2023-05-04T07:47:40.869Z,62.78
2023-05-04T07:48:40.793Z,62.57
2023-05-04T07:49:41.294Z,61.94
2023-05-04T07:50:41.801Z,61.16
2023-05-04T07:51:42.302Z,61.56
2023-05-04T07:52:42.803Z,62.24
2023-05-04T07:53:43.302Z,61.83
2023-05-04T07:54:43.779Z,60.82
2023-05-04T07:55:44.263Z,60.42
2023-05-04T07:56:44.750Z,60.28
2023-05-04T07:57:45.250Z,60.19
2023-05-04T07:58:45.748Z,60.19
2023-05-04T07:59:46.247Z,59.58
2023-05-04T08:00:46.724Z,59.48
2023-05-04T08:01:47.343Z,59.88
2023-05-04T08:02:47.340Z,60.36
2023-05-04T08:03:47.371Z,59.85
2023-05-04T08:04:47.886Z,58.64
2023-05-04T08:05:48.391Z,58.92
2023-05-04T08:06:48.909Z,59.01
2023-05-04T08:07:49.397Z,59.32
2023-05-04T08:08:52.539Z,58.41
2023-05-04T08:09:49.907Z,58.51
2023-05-04T08:10:50.392Z,58.20
2023-05-04T08:11:50.860Z,58.69
2023-05-04T08:12:51.391Z,57.75
2023-05-04T08:13:51.880Z,57.47
2023-05-04T08:14:52.349Z,57.70
2023-05-04T08:15:52.843Z,57.78
2023-05-04T08:16:53.320Z,57.47
2023-05-04T08:17:53.859Z,57.67
2023-05-04T08:18:54.351Z,57.47
2023-05-04T08:19:54.837Z,57.24
2023-05-04T08:20:55.320Z,57.07
2023-05-04T08:21:55.800Z,57.65
2023-05-04T08:22:56.343Z,57.44
2023-05-04T08:23:57.072Z,57.17
2023-05-04T08:24:57.023Z,57.37
2023-05-04T08:25:57.512Z,56.05
2023-05-04T08:27:06.960Z,56.63
2023-05-04T08:27:58.157Z,55.62
2023-05-04T08:28:58.639Z,55.90
2023-05-04T08:29:59.117Z,55.67
2023-05-04T08:30:59.589Z,55.07
2023-05-04T08:32:00.257Z,55.36
2023-05-04T08:33:00.286Z,54.79
2023-05-04T08:34:00.802Z,55.36
2023-05-04T08:35:01.360Z,55.07
2023-05-04T08:36:01.264Z,55.57
2023-05-04T08:37:01.805Z,55.94
2023-05-04T08:38:02.266Z,55.24
2023-05-04T08:39:02.761Z,55.14
2023-05-04T08:40:03.235Z,54.63
2023-05-04T08:41:03.802Z,54.36
2023-05-04T08:42:03.724Z,54.86
2023-05-04T08:43:04.192Z,54.33
2023-05-04T08:44:04.647Z,54.33
2023-05-04T08:45:05.486Z,54.83
2023-05-04T08:46:05.581Z,53.52
2023-05-04T08:47:05.505Z,53.42
2023-05-04T08:48:06.011Z,54.51
2023-05-04T08:49:06.508Z,53.78
2023-05-04T08:50:07.045Z,53.17
2023-05-04T08:51:07.531Z,52.89
2023-05-04T08:52:07.996Z,53.20
2023-05-04T08:53:08.464Z,53.20
2023-05-04T08:54:08.935Z,52.97
2023-05-04T08:55:09.407Z,52.36
2023-05-04T08:56:09.877Z,52.06
2023-05-04T08:57:10.354Z,52.97
2023-05-04T08:58:10.839Z,53.34
2023-05-04T08:59:11.365Z,51.51
2023-05-04T09:00:11.845Z,49.90
2023-05-04T09:01:12.401Z,50.70
2023-05-04T09:02:12.386Z,51.20
2023-05-04T09:03:12.461Z,49.87
2023-05-04T09:04:12.404Z,49.27
2023-05-04T09:05:12.879Z,49.27
2023-05-04T09:06:13.354Z,49.97
2023-05-04T09:07:13.824Z,49.97
2023-05-04T09:08:14.290Z,48.44
2023-05-04T09:09:14.779Z,48.44
2023-05-04T09:10:15.277Z,47.81
2023-05-04T09:11:15.743Z,47.11
2023-05-04T09:12:16.192Z,47.91
2023-05-04T09:13:16.713Z,45.57
2023-05-04T09:14:16.637Z,47.39
2023-05-04T09:15:17.125Z,45.98
2023-05-04T09:16:17.602Z,46.38
2023-05-04T09:17:18.157Z,46.58
2023-05-04T09:18:18.644Z,47.49
2023-05-04T09:19:18.620Z,45.95
2023-05-04T09:20:19.099Z,45.35
2023-05-04T09:21:19.545Z,45.87
2023-05-04T09:22:19.991Z,45.05
2023-05-04T09:23:20.007Z,45.25
2023-05-04T09:24:20.473Z,44.35
2023-05-04T09:25:20.914Z,44.43
2023-05-04T09:26:21.372Z,45.33
2023-05-04T09:27:21.880Z,43.92
2023-05-04T09:28:22.344Z,44.63
2023-05-04T09:29:22.797Z,45.13
2023-05-04T09:30:23.264Z,44.93
2023-05-04T09:31:23.830Z,44.63
2023-05-04T09:32:23.952Z,44.43
2023-05-04T09:33:23.928Z,45.13
2023-05-04T09:34:23.789Z,45.33
2023-05-04T09:35:32.437Z,45.18
2023-05-04T09:36:24.413Z,44.08
2023-05-04T09:37:24.885Z,42.58
2023-05-04T09:38:25.350Z,44.00
2023-05-04T09:39:25.820Z,44.89
2023-05-04T09:40:26.263Z,43.50
2023-05-04T09:41:26.698Z,43.50
2023-05-04T09:42:27.252Z,42.60
2023-05-04T09:43:27.142Z,43.48
2023-05-04T09:44:29.391Z,43.28
2023-05-04T09:45:27.800Z,44.38
2023-05-04T09:46:28.321Z,43.18
2023-05-04T09:47:28.231Z,44.08
2023-05-04T09:48:28.697Z,44.56
2023-05-04T09:49:29.153Z,43.76
2023-05-04T09:50:29.607Z,43.54
2023-05-04T09:51:30.073Z,43.14
2023-05-04T09:52:30.551Z,45.04
2023-05-04T09:53:30.993Z,42.33
2023-05-04T09:54:31.425Z,41.63
2023-05-04T09:55:31.859Z,41.43
2023-05-04T09:56:32.308Z,43.06
2023-05-04T09:57:32.232Z,43.44
2023-05-04T09:58:32.692Z,42.83
2023-05-04T09:59:33.129Z,43.74
2023-05-04T10:00:33.539Z,42.74
2023-05-04T10:01:33.968Z,42.03
2023-05-04T10:02:34.546Z,42.16
2023-05-04T10:03:34.522Z,41.65
2023-05-04T10:04:34.964Z,41.05
2023-05-04T10:05:35.482Z,41.55
2023-05-04T10:06:35.343Z,41.43
2023-05-04T10:07:35.778Z,42.94
2023-05-04T10:08:36.199Z,41.11
2023-05-04T10:09:36.646Z,41.51
2023-05-04T10:10:37.085Z,42.90
2023-05-04T10:11:37.512Z,41.79
2023-05-04T10:12:38.019Z,43.38
2023-05-04T10:13:37.912Z,41.27
2023-05-04T10:14:38.345Z,40.17
2023-05-04T10:15:38.786Z,41.47
2023-05-04T10:16:39.280Z,40.97
2023-05-04T10:17:39.312Z,41.25
2023-05-04T10:18:39.196Z,41.66
2023-05-04T10:19:39.615Z,41.46
2023-05-04T10:20:40.027Z,41.74
2023-05-04T10:21:40.447Z,39.55
2023-05-04T10:22:40.858Z,39.97
2023-05-04T10:23:41.260Z,42.77
2023-05-04T10:24:41.681Z,42.13
2023-05-04T10:25:42.117Z,40.13
2023-05-04T10:26:42.532Z,40.13
2023-05-04T10:27:42.943Z,41.03
2023-05-04T10:28:43.359Z,39.63
2023-05-04T10:29:43.797Z,39.93
2023-05-04T10:30:44.221Z,40.43
2023-05-04T10:31:44.687Z,41.03
2023-05-04T10:32:45.173Z,41.61
2023-05-04T10:33:45.640Z,40.31
2023-05-04T10:34:46.096Z,39.91
2023-05-04T10:35:46.540Z,39.01
2023-05-04T10:36:46.961Z,39.31
2023-05-04T10:37:47.378Z,38.71
2023-05-04T10:38:47.807Z,38.01
2023-05-04T10:39:48.254Z,37.92
2023-05-04T10:40:48.669Z,38.63
2023-05-04T10:41:49.104Z,38.53
2023-05-04T10:42:49.505Z,40.13
2023-05-04T10:43:49.916Z,38.85
2023-05-04T10:44:50.337Z,39.15
2023-05-04T10:45:50.795Z,39.35
2023-05-04T10:46:51.217Z,40.35
2023-05-04T10:47:51.653Z,38.83
2023-05-04T10:48:52.103Z,38.17
2023-05-04T10:49:52.535Z,39.07
2023-05-04T10:50:52.994Z,40.05
2023-05-04T10:51:53.431Z,39.65
2023-05-04T10:52:53.935Z,38.85
2023-05-04T10:53:53.796Z,40.63
2023-05-04T10:54:54.229Z,37.53
2023-05-04T10:55:54.706Z,37.85
2023-05-04T10:56:55.110Z,39.75
2023-05-04T10:57:55.531Z,39.43
2023-05-04T10:58:55.971Z,40.22
2023-05-04T10:59:56.416Z,37.61
2023-05-04T11:00:56.863Z,39.33
2023-05-04T11:01:57.301Z,40.33
2023-05-04T11:02:57.794Z,37.53
2023-05-04T11:03:57.679Z,37.73
2023-05-04T11:04:58.115Z,38.81
2023-05-04T11:05:58.519Z,38.91
2023-05-04T11:06:58.947Z,39.22
2023-05-04T11:08:00.495Z,39.11
2023-05-04T11:08:59.864Z,40.31
2023-05-04T11:10:00.300Z,38.29
2023-05-04T11:11:00.725Z,40.00
2023-05-04T11:12:01.390Z,37.92
2023-05-04T11:13:02.741Z,37.79
2023-05-04T11:14:01.176Z,37.51
2023-05-04T11:15:01.598Z,38.71
2023-05-04T11:16:02.096Z,38.59
2023-05-04T11:17:03.840Z,39.50
2023-05-04T11:18:02.057Z,38.40
2023-05-04T11:19:01.914Z,38.70
2023-05-04T11:20:02.329Z,37.99
2023-05-04T11:21:02.749Z,39.28
2023-05-04T11:22:03.159Z,39.18
2023-05-04T11:23:03.571Z,37.66
2023-05-04T11:24:03.949Z,38.38
2023-05-04T11:25:04.564Z,38.20
2023-05-04T11:26:04.624Z,37.19
2023-05-04T11:27:05.021Z,37.98
2023-05-04T11:28:05.416Z,36.18
2023-05-04T11:29:05.836Z,36.18
2023-05-04T11:30:06.250Z,37.08
2023-05-04T11:31:06.687Z,39.15
2023-05-04T11:32:06.564Z,37.58
2023-05-04T11:33:06.976Z,37.79
2023-05-04T11:34:07.380Z,39.00
2023-05-04T11:35:07.964Z,39.00
2023-05-04T11:36:08.015Z,40.59
2023-05-04T11:37:08.419Z,40.89
2023-05-04T11:38:08.814Z,40.31
2023-05-04T11:39:09.220Z,40.83
2023-05-04T11:40:09.628Z,40.81
2023-05-04T11:41:10.073Z,40.52
2023-05-04T11:42:10.452Z,41.69
2023-05-04T11:43:10.857Z,40.39
2023-05-04T11:44:11.249Z,41.30
2023-05-04T11:45:11.621Z,41.58
2023-05-04T11:46:12.087Z,41.47
2023-05-04T11:47:11.918Z,40.67
2023-05-04T11:48:12.293Z,40.08
2023-05-04T11:49:12.675Z,39.58
2023-05-04T11:50:13.144Z,39.58
2023-05-04T11:51:13.010Z,38.76
2023-05-04T11:52:13.392Z,39.06
2023-05-04T11:53:13.764Z,39.65
2023-05-04T11:54:14.146Z,40.16
2023-05-04T11:55:14.494Z,40.34
2023-05-04T11:56:14.842Z,41.14
2023-05-04T11:57:15.190Z,41.25
2023-05-04T11:58:15.079Z,39.94
2023-05-04T11:59:15.429Z,40.36
2023-05-04T12:00:15.794Z,41.05
2023-05-04T12:01:16.201Z,40.86
2023-05-04T12:02:16.603Z,39.65
2023-05-04T12:03:16.591Z,40.23
2023-05-04T12:04:16.536Z,41.22
2023-05-04T12:05:16.378Z,41.53
2023-05-04T12:06:16.221Z,42.02
2023-05-04T12:07:15.867Z,42.10
2023-05-04T12:08:16.193Z,42.10
2023-05-04T12:09:16.530Z,42.19
2023-05-04T12:10:16.860Z,40.18
2023-05-04T12:11:17.177Z,40.48
2023-05-04T12:12:17.498Z,40.50
2023-05-04T12:13:17.944Z,40.92
2023-05-04T12:14:17.712Z,40.01
2023-05-04T12:15:18.008Z,40.20
2023-05-04T12:16:18.424Z,41.50
2023-05-04T12:17:18.180Z,40.08
2023-05-04T12:18:18.442Z,39.46
2023-05-04T12:19:18.701Z,38.76
2023-05-04T12:20:18.946Z,39.66
2023-05-04T12:21:19.205Z,39.66
2023-05-04T12:22:19.454Z,40.56
2023-05-04T12:23:19.697Z,40.86
2023-05-04T12:24:19.961Z,39.04
2023-05-04T12:25:20.199Z,40.56
2023-05-04T12:26:21.429Z,40.76
2023-05-04T12:27:21.471Z,39.36
2023-05-04T12:28:21.507Z,39.46
2023-05-04T12:29:20.577Z,40.26
2023-05-04T12:30:20.804Z,40.66
2023-05-04T12:31:22.387Z,40.44
2023-05-04T12:32:20.979Z,39.83
2023-05-04T12:33:21.200Z,39.32
2023-05-04T12:34:21.457Z,39.42
2023-05-04T12:35:21.676Z,39.53
2023-05-04T12:36:21.867Z,37.81
2023-05-04T12:37:24.476Z,38.71
2023-05-04T12:38:21.738Z,39.32
2023-05-04T12:39:21.928Z,39.92
2023-05-04T12:41:21.947Z,38.35
2023-05-04T12:42:22.135Z,39.03
2023-05-04T12:43:22.312Z,39.32
2023-05-04T12:44:22.510Z,39.32
2023-05-04T12:45:22.801Z,39.32
2023-05-04T12:46:22.527Z,40.02
2023-05-04T12:47:22.392Z,38.82
2023-05-04T12:48:22.080Z,38.33
2023-05-04T12:49:24.094Z,38.53
2023-05-04T12:50:21.950Z,38.81
2023-05-04T12:51:22.161Z,38.21
2023-05-04T12:52:22.350Z,38.41
2023-05-04T12:53:22.651Z,38.51
2023-05-04T12:54:22.290Z,38.20
2023-05-04T12:55:24.755Z,37.90
2023-05-04T12:56:22.142Z,37.36
2023-05-04T12:57:22.324Z,38.16
2023-05-04T12:58:22.507Z,38.43
2023-05-04T12:59:22.706Z,37.84